createdAt,value
2019-02-20T00:01:23.459Z,61.90
2019-02-20T00:03:51.409Z,50.13
2019-02-20T00:06:19.564Z,60.53
2019-02-20T00:08:47.715Z,59.73
2019-02-20T00:11:15.595Z,68.53
2019-02-20T00:13:43.618Z,63.63
2019-02-20T00:16:11.648Z,64.60
2019-02-20T00:18:39.585Z,67.73
2019-02-20T00:21:07.451Z,64.83
2019-02-20T00:23:35.321Z,71.73
2019-02-20T00:26:03.322Z,66.83
2019-02-20T00:28:31.305Z,69.10
2019-02-20T00:30:59.196Z,68.53
2019-02-20T00:33:27.163Z,65.67
2019-02-20T00:35:55.175Z,74.97
2019-02-20T00:38:23.112Z,57.10
2019-02-20T00:40:51.047Z,68.30
2019-02-20T00:43:19.035Z,58.30
2019-02-20T00:46:02.738Z,62.33
2019-02-20T00:48:56.379Z,63.20
2019-02-20T00:51:49.545Z,59.03
2019-02-20T00:54:17.617Z,58.67
2019-02-20T00:56:45.470Z,52.93
2019-02-20T00:59:13.385Z,48.23
2019-02-20T01:01:41.315Z,49.47
2019-02-20T01:04:09.265Z,48.03
2019-02-20T01:06:37.263Z,41.23
2019-02-20T01:09:06.625Z,50.43
2019-02-20T01:11:36.156Z,49.67
2019-02-20T01:14:04.037Z,48.47
2019-02-20T01:16:31.899Z,45.83
2019-02-20T01:18:59.775Z,47.13
2019-02-20T01:21:27.659Z,46.37
2019-02-20T01:23:55.498Z,45.53
2019-02-20T01:26:23.463Z,44.97
2019-02-20T01:28:51.487Z,45.60
2019-02-20T01:31:19.405Z,47.27
2019-02-20T01:33:47.297Z,47.37
2019-02-20T01:36:15.349Z,45.00
2019-02-20T01:38:43.175Z,44.93
2019-02-20T01:41:11.948Z,42.63
2019-02-20T01:43:39.782Z,45.20
2019-02-20T01:46:07.725Z,43.10
2019-02-20T01:48:35.718Z,48.20
2019-02-20T01:51:03.667Z,41.87
2019-02-20T01:53:31.606Z,46.07
2019-02-20T01:55:59.496Z,42.87
2019-02-20T01:58:27.440Z,43.03
2019-02-20T02:00:56.795Z,44.27
2019-02-20T02:03:24.763Z,44.27
2019-02-20T02:05:52.786Z,45.10
2019-02-20T02:08:20.604Z,42.23
2019-02-20T02:10:48.653Z,39.97
2019-02-20T02:13:17.585Z,50.47
2019-02-20T02:15:45.484Z,45.53
2019-02-20T02:18:13.311Z,45.30
2019-02-20T02:20:41.202Z,41.20
2019-02-20T02:23:09.122Z,41.67
2019-02-20T02:25:37.118Z,43.53
2019-02-20T02:28:05.027Z,41.80
2019-02-20T02:30:32.947Z,35.10
2019-02-20T02:33:00.949Z,42.40
2019-02-20T02:35:28.882Z,38.10
2019-02-20T02:37:56.864Z,40.47
2019-02-20T02:40:24.810Z,40.83
2019-02-20T02:42:52.779Z,43.00
2019-02-20T02:45:21.847Z,38.90
2019-02-20T02:47:49.738Z,43.67
2019-02-20T02:50:17.707Z,43.13
2019-02-20T02:52:45.668Z,40.93
2019-02-20T02:55:13.508Z,40.03
2019-02-20T02:57:41.346Z,36.20
2019-02-20T03:00:09.534Z,45.30
2019-02-20T03:02:37.711Z,42.17
2019-02-20T03:05:05.721Z,41.03
2019-02-20T03:07:33.761Z,40.90
2019-02-20T03:10:01.588Z,40.13
2019-02-20T03:12:30.248Z,34.07
2019-02-20T03:14:58.087Z,40.10
2019-02-20T03:17:26.006Z,39.60
2019-02-20T03:19:53.925Z,34.97
2019-02-20T03:22:22.924Z,37.50
2019-02-20T03:24:50.845Z,34.37
2019-02-20T03:27:18.729Z,36.00
2019-02-20T03:29:46.609Z,36.90
2019-02-20T03:32:14.494Z,34.23
2019-02-20T03:34:42.323Z,36.63
2019-02-20T03:37:10.220Z,35.60
2019-02-20T03:39:38.313Z,40.43
2019-02-20T03:42:06.473Z,36.63
2019-02-20T03:44:34.514Z,33.67
2019-02-20T03:47:02.532Z,41.07
2019-02-20T03:49:30.731Z,37.63
2019-02-20T03:51:58.868Z,36.27
2019-02-20T03:54:26.742Z,39.03
2019-02-20T03:56:54.782Z,36.00
2019-02-20T03:59:22.804Z,36.70
2019-02-20T04:01:50.682Z,40.13
2019-02-20T04:04:18.635Z,36.53
2019-02-20T04:06:46.484Z,38.97
2019-02-20T04:09:14.490Z,34.43
2019-02-20T04:11:42.424Z,33.43
2019-02-20T04:14:10.251Z,34.50
2019-02-20T04:16:38.184Z,31.97
2019-02-20T04:19:06.098Z,36.73
2019-02-20T04:21:34.033Z,33.17
2019-02-20T04:24:02.948Z,33.77
2019-02-20T04:26:31.000Z,32.07
2019-02-20T04:28:58.848Z,38.23
2019-02-20T04:31:26.858Z,32.23
2019-02-20T04:33:54.724Z,37.63
2019-02-20T04:36:22.755Z,33.20
2019-02-20T04:38:50.627Z,33.77
2019-02-20T04:41:18.678Z,33.30
2019-02-20T04:43:46.675Z,39.03
2019-02-20T04:46:15.685Z,39.90
2019-02-20T04:48:43.489Z,31.30
2019-02-20T04:51:11.479Z,33.67
2019-02-20T04:53:39.402Z,36.83
2019-02-20T04:56:09.649Z,35.63
2019-02-20T04:58:37.743Z,40.53
2019-02-20T05:01:05.735Z,38.03
2019-02-20T05:03:33.764Z,31.20
2019-02-20T05:06:01.700Z,38.70
2019-02-20T05:08:29.767Z,35.30
2019-02-20T05:10:57.674Z,34.40
2019-02-20T05:13:25.478Z,33.90
2019-02-20T05:15:53.343Z,37.67
2019-02-20T05:18:22.470Z,31.40
2019-02-20T05:20:50.311Z,32.97
2019-02-20T05:23:18.319Z,37.17
2019-02-20T05:34:28.440Z,34.80
2019-02-20T05:36:56.323Z,39.13
2019-02-20T05:39:24.290Z,33.80
2019-02-20T05:41:52.290Z,33.20
2019-02-20T05:44:21.558Z,32.17
2019-02-20T05:46:59.721Z,39.67
2019-02-20T05:49:29.690Z,35.63
2019-02-20T05:52:00.534Z,35.27
2019-02-20T05:54:34.655Z,37.83
2019-02-20T05:56:59.233Z,36.03
2019-02-20T05:59:27.408Z,38.33
2019-02-20T06:01:55.233Z,37.93
2019-02-20T06:04:23.120Z,35.10
2019-02-20T06:06:50.927Z,35.53
2019-02-20T06:09:18.899Z,40.83
2019-02-20T06:11:46.826Z,38.83
2019-02-20T06:14:14.838Z,41.80
2019-02-20T06:16:43.881Z,38.03
2019-02-20T06:19:11.958Z,40.20
2019-02-20T06:21:40.140Z,41.37
2019-02-20T06:24:08.071Z,37.10
2019-02-20T06:26:35.982Z,35.90
2019-02-20T06:29:03.999Z,41.60
2019-02-20T06:31:31.949Z,41.20
2019-02-20T06:33:59.838Z,43.10
2019-02-20T06:36:28.807Z,39.83
2019-02-20T06:38:57.169Z,40.23
2019-02-20T06:41:25.121Z,37.47
2019-02-20T06:43:53.117Z,35.07
2019-02-20T06:46:21.100Z,37.30
2019-02-20T06:48:48.972Z,36.27
2019-02-20T06:51:16.998Z,38.57
2019-02-20T06:53:45.031Z,42.17
2019-02-20T06:56:13.084Z,37.37
2019-02-20T06:58:40.968Z,36.73
2019-02-20T07:01:08.958Z,42.07
2019-02-20T07:03:38.027Z,37.10
2019-02-20T07:06:53.797Z,35.27
2019-02-20T07:10:05.437Z,34.60
2019-02-20T07:12:57.108Z,34.93
2019-02-20T07:16:15.164Z,38.07
2019-02-20T07:18:58.456Z,31.50
2019-02-20T07:22:01.503Z,30.30
2019-02-20T07:25:08.060Z,34.13
2019-02-20T07:27:51.515Z,34.80
2019-02-20T07:30:19.672Z,35.60
2019-02-20T07:32:47.623Z,36.60
2019-02-20T07:35:15.636Z,34.93
2019-02-20T07:37:43.765Z,34.57
2019-02-20T07:40:12.343Z,38.23
2019-02-20T07:42:40.413Z,35.17
2019-02-20T07:45:10.740Z,37.60
2019-02-20T07:47:39.037Z,36.57
2019-02-20T07:50:08.249Z,42.37
2019-02-20T07:52:36.554Z,40.77
2019-02-20T07:55:12.921Z,40.50
2019-02-20T07:57:34.803Z,39.43
2019-02-20T08:00:02.883Z,40.33
2019-02-20T08:02:32.662Z,38.80
2019-02-20T08:05:00.642Z,45.23
2019-02-20T08:07:28.715Z,36.70
2019-02-20T08:09:56.643Z,38.80
2019-02-20T08:12:25.605Z,40.40
2019-02-20T08:14:53.527Z,38.50
2019-02-20T08:17:21.476Z,43.47
2019-02-20T08:19:49.524Z,37.80
2019-02-20T08:22:17.408Z,34.93
2019-02-20T08:24:45.420Z,33.73
2019-02-20T08:27:13.481Z,41.13
2019-02-20T08:29:41.417Z,37.53
2019-02-20T08:32:09.387Z,37.33
2019-02-20T08:34:37.436Z,36.07
2019-02-20T08:37:05.490Z,34.60
2019-02-20T08:39:33.466Z,36.83
2019-02-20T08:42:01.612Z,34.13
2019-02-20T08:44:31.870Z,32.87
2019-02-20T08:46:59.858Z,39.80
2019-02-20T08:49:27.749Z,36.87
2019-02-20T08:51:57.528Z,37.87
2019-02-20T08:54:26.727Z,39.23
2019-02-20T08:56:54.710Z,36.43
2019-02-20T08:59:22.638Z,39.80
2019-02-20T09:01:50.779Z,37.93
2019-02-20T09:04:18.848Z,33.83
2019-02-20T09:06:46.893Z,32.97
2019-02-20T09:09:14.844Z,37.37
2019-02-20T09:11:42.959Z,32.20
2019-02-20T09:14:10.927Z,35.50
2019-02-20T09:16:39.070Z,32.77
2019-02-20T09:19:07.472Z,33.20
2019-02-20T09:21:35.574Z,37.67
2019-02-20T09:24:03.712Z,31.73
2019-02-20T09:26:31.640Z,33.47
2019-02-20T09:28:59.654Z,35.00
2019-02-20T09:31:27.703Z,33.93
2019-02-20T09:33:56.730Z,32.60
2019-02-20T09:36:24.828Z,35.70
2019-02-20T09:38:52.815Z,30.53
2019-02-20T09:41:20.895Z,29.77
2019-02-20T09:43:48.886Z,38.30
2019-02-20T09:46:17.060Z,30.40
2019-02-20T09:48:45.112Z,29.80
2019-02-20T09:51:13.092Z,36.47
2019-02-20T09:53:41.111Z,36.53
2019-02-20T09:56:09.088Z,33.10
2019-02-20T09:58:37.155Z,36.63
2019-02-20T10:01:05.165Z,33.00
2019-02-20T10:03:33.177Z,31.17
2019-02-20T10:06:01.043Z,29.17
2019-02-20T10:08:29.279Z,33.03
2019-02-20T10:10:57.235Z,32.73
2019-02-20T10:13:25.491Z,35.63
2019-02-20T10:15:53.469Z,29.10
2019-02-20T10:18:22.486Z,29.27
2019-02-20T10:20:50.522Z,32.10
2019-02-20T10:23:18.553Z,23.57
2019-02-20T10:25:46.598Z,21.70
2019-02-20T10:28:14.682Z,24.23
2019-02-20T10:30:42.718Z,24.70
2019-02-20T10:33:10.811Z,25.57
2019-02-20T10:35:39.427Z,27.87
2019-02-20T10:38:07.490Z,21.37
2019-02-20T10:40:35.405Z,20.77
2019-02-20T10:43:03.993Z,19.10
2019-02-20T10:45:32.722Z,17.70
2019-02-20T10:48:00.798Z,23.20
2019-02-20T10:50:29.054Z,20.90
2019-02-20T10:52:57.107Z,18.27
2019-02-20T10:55:25.004Z,18.63
2019-02-20T10:57:52.957Z,22.77
2019-02-20T11:00:25.867Z,22.47
2019-02-20T11:02:54.017Z,22.37
2019-02-20T11:05:23.126Z,21.47
2019-02-20T11:07:51.292Z,22.47
2019-02-20T11:10:20.311Z,20.97
2019-02-20T11:12:50.111Z,26.00
2019-02-20T11:15:18.206Z,20.33
2019-02-20T11:17:46.272Z,17.57
2019-02-20T11:20:14.212Z,19.67
2019-02-20T11:22:42.339Z,14.43
2019-02-20T11:25:10.442Z,13.93
2019-02-20T11:27:39.570Z,10.90
2019-02-20T11:30:10.631Z,12.57
2019-02-20T11:32:38.959Z,10.40
2019-02-20T11:35:07.574Z,9.73
2019-02-20T11:37:35.950Z,11.40
2019-02-20T11:40:05.038Z,10.77
2019-02-20T11:42:33.093Z,20.70
2019-02-20T11:45:01.112Z,9.20
2019-02-20T11:47:29.026Z,13.13
2019-02-20T11:49:57.200Z,12.03
2019-02-20T11:52:25.024Z,10.70
2019-02-20T11:54:53.023Z,9.80
2019-02-20T11:57:20.995Z,10.87
2019-02-20T11:59:49.118Z,12.07
2019-02-20T12:02:17.050Z,13.63
2019-02-20T12:04:45.310Z,13.97
2019-02-20T12:07:13.355Z,8.30
2019-02-20T12:09:41.484Z,7.57
2019-02-20T12:12:09.735Z,6.50
2019-02-20T12:14:37.752Z,10.70
2019-02-20T12:17:06.831Z,8.87
2019-02-20T12:19:34.873Z,6.70
2019-02-20T12:22:02.963Z,7.03
2019-02-20T12:24:32.852Z,7.27
2019-02-20T12:27:00.924Z,8.33
2019-02-20T12:29:30.140Z,9.10
2019-02-20T12:31:58.185Z,6.97
2019-02-20T12:34:26.029Z,8.93
2019-02-20T12:36:54.137Z,8.17
2019-02-20T12:39:23.235Z,11.17
2019-02-20T12:41:51.130Z,7.90
2019-02-20T12:44:19.230Z,6.37
2019-02-20T12:46:47.811Z,9.43
2019-02-20T12:49:16.069Z,11.30
2019-02-20T12:51:44.249Z,7.17
2019-02-20T12:54:12.326Z,11.70
2019-02-20T12:56:44.025Z,6.10
2019-02-20T12:59:10.320Z,7.23
2019-02-20T13:01:38.269Z,9.87
2019-02-20T13:04:06.430Z,10.27
2019-02-20T13:06:34.409Z,8.53
2019-02-20T13:09:04.327Z,11.93
2019-02-20T13:11:34.250Z,11.40
2019-02-20T13:14:02.401Z,9.07
2019-02-20T13:16:30.335Z,12.50
2019-02-20T13:18:58.348Z,8.80
2019-02-20T13:21:26.425Z,14.60
2019-02-20T13:23:54.375Z,9.17
2019-02-20T13:26:22.417Z,10.03
2019-02-20T13:28:50.437Z,11.00
2019-02-20T13:31:18.275Z,10.13
2019-02-20T13:33:46.284Z,12.57
2019-02-20T13:36:14.361Z,15.60
2019-02-20T13:38:42.366Z,19.17
2019-02-20T13:41:12.520Z,9.70
2019-02-20T13:43:40.685Z,14.60
2019-02-20T13:46:08.731Z,13.23
2019-02-20T13:48:36.727Z,8.70
2019-02-20T13:51:04.660Z,5.53
2019-02-20T13:53:33.677Z,12.23
2019-02-20T13:56:01.956Z,13.20
2019-02-20T13:58:30.328Z,15.77
2019-02-20T14:00:58.288Z,7.83
2019-02-20T14:03:26.576Z,8.73
2019-02-20T14:05:54.521Z,10.37
2019-02-20T14:08:22.648Z,8.33
2019-02-20T14:10:51.093Z,9.03
2019-02-20T14:13:19.293Z,8.83
2019-02-20T14:15:47.474Z,8.70
2019-02-20T14:18:15.568Z,7.97
2019-02-20T14:20:43.704Z,12.97
2019-02-20T14:23:11.838Z,8.63
2019-02-20T14:25:39.984Z,7.83
2019-02-20T14:28:08.070Z,13.47
2019-02-20T14:30:36.367Z,10.83
2019-02-20T14:33:04.455Z,8.77
2019-02-20T14:35:32.609Z,10.37
2019-02-20T14:38:00.598Z,8.10
2019-02-20T14:40:28.907Z,8.27
2019-02-20T14:42:56.942Z,14.37
2019-02-20T14:45:25.244Z,10.40
2019-02-20T14:47:53.548Z,5.57
2019-02-20T14:50:22.059Z,9.83
2019-02-20T14:52:50.262Z,10.87
2019-02-20T14:55:18.515Z,15.40
2019-02-20T14:57:46.524Z,14.43
2019-02-20T15:00:15.921Z,10.67
2019-02-20T15:02:45.043Z,8.63
2019-02-20T15:05:13.091Z,11.80
2019-02-20T15:07:41.184Z,8.27
2019-02-20T15:10:10.529Z,12.23
2019-02-20T15:12:39.030Z,10.60
2019-02-20T15:15:10.650Z,17.27
2019-02-20T15:17:37.035Z,14.40
2019-02-20T15:20:05.135Z,13.03
2019-02-20T15:22:33.473Z,15.27
2019-02-20T15:25:01.465Z,11.40
2019-02-20T15:27:30.365Z,11.23
2019-02-20T15:29:58.323Z,10.87
2019-02-20T15:32:26.271Z,12.17
2019-02-20T15:34:54.461Z,11.80
2019-02-20T15:37:22.439Z,11.43
2019-02-20T15:39:50.998Z,9.30
2019-02-20T15:42:19.104Z,12.50
2019-02-20T15:44:47.212Z,10.13
2019-02-20T15:47:15.352Z,11.00
2019-02-20T15:49:43.514Z,12.27
2019-02-20T15:52:11.769Z,19.20
2019-02-20T15:54:39.617Z,11.67
2019-02-20T15:57:07.882Z,8.87
2019-02-20T15:59:35.883Z,11.07
2019-02-20T16:02:03.957Z,9.50
2019-02-20T16:04:31.981Z,8.37
2019-02-20T16:07:01.133Z,10.30
2019-02-20T16:09:29.659Z,9.83
2019-02-20T16:11:57.499Z,14.80
2019-02-20T16:14:25.700Z,17.57
2019-02-20T16:16:54.169Z,11.67
2019-02-20T16:19:22.461Z,13.63
2019-02-20T16:21:50.489Z,11.77
2019-02-20T16:24:19.174Z,22.00
2019-02-20T16:26:47.137Z,13.80
2019-02-20T16:29:15.121Z,14.13
2019-02-20T16:31:43.715Z,17.07
2019-02-20T16:34:11.944Z,15.17
2019-02-20T16:36:39.987Z,17.90
2019-02-20T16:39:08.058Z,21.23
2019-02-20T16:41:36.596Z,18.33
2019-02-20T16:44:04.641Z,21.23
2019-02-20T16:46:32.809Z,19.50
2019-02-20T16:49:01.206Z,26.57
2019-02-20T16:51:29.433Z,28.00
2019-02-20T16:53:57.877Z,27.33
2019-02-20T16:56:28.597Z,27.03
2019-02-20T16:58:57.583Z,23.90
2019-02-20T17:01:26.161Z,24.90
2019-02-20T17:03:54.556Z,28.93
2019-02-20T17:06:22.933Z,27.90
2019-02-20T17:08:51.153Z,28.47
2019-02-20T17:11:21.303Z,28.07
2019-02-20T17:13:50.741Z,27.10
2019-02-20T17:16:20.997Z,31.40
2019-02-20T17:18:49.000Z,33.93
2019-02-20T17:21:17.697Z,43.00
2019-02-20T17:23:46.207Z,33.40
2019-02-20T17:26:14.599Z,35.10
2019-02-20T17:28:43.883Z,35.63
2019-02-20T17:31:12.396Z,32.47
2019-02-20T17:33:40.699Z,42.27
2019-02-20T17:36:09.199Z,36.80
2019-02-20T17:38:39.147Z,35.07
2019-02-20T17:41:08.302Z,35.30
2019-02-20T17:43:36.779Z,37.77
2019-02-20T17:46:06.476Z,37.53
2019-02-20T17:48:36.266Z,34.23
2019-02-20T17:51:04.404Z,33.03
2019-02-20T17:53:34.409Z,35.97
2019-02-20T17:56:03.495Z,35.27
2019-02-20T17:58:41.356Z,36.67
2019-02-20T18:01:15.958Z,29.70
2019-02-20T18:03:44.323Z,30.17
2019-02-20T18:06:12.251Z,33.97
2019-02-20T18:08:40.308Z,32.40
2019-02-20T18:11:08.466Z,28.40
2019-02-20T18:13:36.606Z,36.73
2019-02-20T18:16:04.733Z,42.50
2019-02-20T18:18:32.691Z,35.53
2019-02-20T18:21:00.647Z,31.50
2019-02-20T18:23:28.726Z,28.03
2019-02-20T18:25:56.830Z,31.70
2019-02-20T18:28:25.073Z,32.97
2019-02-20T18:30:52.995Z,30.43
2019-02-20T18:33:23.447Z,32.40
2019-02-20T18:35:52.498Z,32.00
2019-02-20T18:38:20.449Z,39.43
2019-02-20T18:40:48.472Z,34.83
2019-02-20T18:43:16.532Z,41.30
2019-02-20T18:45:44.608Z,33.07
2019-02-20T18:48:12.756Z,34.67
2019-02-20T18:50:40.830Z,31.80
2019-02-20T18:53:08.846Z,40.50
2019-02-20T18:55:36.998Z,38.80
2019-02-20T18:58:04.970Z,34.90
2019-02-20T19:00:33.099Z,36.47
2019-02-20T19:03:01.220Z,32.47
2019-02-20T19:05:29.416Z,38.73
2019-02-20T19:07:57.493Z,34.97
2019-02-20T19:10:30.106Z,41.23
2019-02-20T19:13:39.232Z,47.80
2019-02-20T19:16:31.743Z,38.07
2019-02-20T19:19:35.099Z,39.27
2019-02-20T19:23:09.242Z,42.17
2019-02-20T19:26:02.366Z,45.20
2019-02-20T19:28:47.489Z,37.80
2019-02-20T19:31:52.929Z,41.70
2019-02-20T19:34:55.481Z,39.03
2019-02-20T19:38:21.614Z,39.33
2019-02-20T19:41:29.880Z,42.57
2019-02-20T19:44:15.442Z,39.67
2019-02-20T19:47:09.057Z,44.83
2019-02-20T19:50:18.731Z,35.00
2019-02-20T19:53:12.238Z,41.67
2019-02-20T19:56:13.213Z,44.20
2019-02-20T19:59:18.465Z,38.20
2019-02-20T20:02:42.382Z,43.73
2019-02-20T20:05:46.080Z,42.40
2019-02-20T20:08:29.795Z,48.63
2019-02-20T20:11:44.442Z,47.03
2019-02-20T20:14:48.555Z,44.43
2019-02-20T20:17:47.751Z,44.63
2019-02-20T20:20:57.484Z,48.93
2019-02-20T20:24:10.358Z,44.60
2019-02-20T20:27:28.893Z,44.37
2019-02-20T20:30:42.166Z,49.77
2019-02-20T20:34:05.017Z,47.93
2019-02-20T20:36:59.937Z,44.27
2019-02-20T20:39:51.335Z,55.83
2019-02-20T20:42:51.762Z,47.93
2019-02-20T20:46:10.467Z,50.77
2019-02-20T20:49:06.118Z,52.50
2019-02-20T20:52:18.220Z,47.23
2019-02-20T20:55:31.115Z,60.03
2019-02-20T20:58:34.895Z,60.83
2019-02-20T21:01:32.007Z,57.87
2019-02-20T21:04:40.164Z,54.67
2019-02-20T21:07:47.597Z,56.77
2019-02-20T21:10:47.448Z,49.53
2019-02-20T21:14:07.802Z,50.97
2019-02-20T21:17:17.490Z,57.27
2019-02-20T21:20:28.440Z,49.07
2019-02-20T21:23:20.034Z,53.87
2019-02-20T21:26:23.883Z,54.57
2019-02-20T21:29:28.069Z,55.17
2019-02-20T21:32:46.932Z,51.47
2019-02-20T21:35:35.256Z,53.03
2019-02-20T21:38:45.686Z,57.50
2019-02-20T21:41:36.309Z,51.37
2019-02-20T21:44:48.419Z,51.33
2019-02-20T21:48:00.044Z,49.83
2019-02-20T21:51:17.801Z,46.20
2019-02-20T21:54:33.349Z,50.30
2019-02-20T21:57:35.485Z,52.33
2019-02-20T22:00:41.326Z,57.57
2019-02-20T22:03:42.065Z,52.10
2019-02-20T22:06:35.845Z,50.63
2019-02-20T22:09:35.205Z,55.70
2019-02-20T22:12:54.574Z,61.50
2019-02-20T22:15:46.875Z,51.30
2019-02-20T22:18:51.247Z,55.50
2019-02-20T22:21:57.795Z,55.37
2019-02-20T22:25:16.200Z,53.77
2019-02-20T22:28:21.564Z,62.13
2019-02-20T22:31:30.595Z,50.17
2019-02-20T22:34:51.565Z,49.27
2019-02-20T22:37:56.853Z,51.37
2019-02-20T22:40:49.399Z,51.80
2019-02-20T22:43:59.964Z,51.40
2019-02-20T22:47:12.588Z,50.77
2019-02-20T22:50:04.723Z,47.27
2019-02-20T22:52:47.640Z,45.93
2019-02-20T22:55:49.497Z,46.70
2019-02-20T22:59:07.254Z,45.97
2019-02-20T23:02:24.573Z,49.67
2019-02-20T23:05:21.082Z,52.47
2019-02-20T23:08:30.730Z,47.70
2019-02-20T23:11:42.457Z,51.13
2019-02-20T23:14:37.419Z,47.00
